Timeline UpdatesTrip UpdatesNews PostsPvt PostsTravel TipsAdmin PostsConv PostsFollowed PostsChat RequestsBlog PostsPNR Posts

Disclaimer
Search
 
 
Sat Jul 26, 2014 04:35:46 ISTHomeTrainsΣChainsAtlasPNRForumGalleryNewsFAQTripsMembersLoginFeedback
No Recent News for this Train
Other Trains in the News **new
Latest...
.
Tue Apr 15, 2014 (11:20PM)
⇐ Return Journey: Train# 16572

16571/Yesvantpur - Bidar Express

Mar 28 2014 (4:19PM)
Change Departure Station:
Change Arrival Station:
Post a Train Travel TipPost a Train Travel Tip **new
Post a Comment/Question/Picture/VideoPost a Comment/Question/Picture/Video
Inaugural Run
Tue Sep 03, 2013
Pantry/Catering
✕ NO Pantry Car
✓ Catering Avbl
Loco/Rake Reversals
VKB/Vikarabad Junction (3);
RSA - Rake Sharing
Rake/Coach Composition
LOCO-SLR-GS1-GS2-GS3-HB1-A1-B1-S1-S2-S3-S4-S5-GS4-GS5-GS6-SLR.
Loco
KJM WDM 3A
News    PNR    Forum    Time-Table    Availability    Fare Chart    Map    Arr/Dep History    Trips    Gallery    ΣChains    X/O    Timeline    
Travel Time: 14h 15m    16 halts    Distance: 707 km    Avg Speed: 49 km/hr
Type: Mail/Express
Zone: SWR/South Western
Departs @ 19:15
Platform# ???
S T T  
Yesvantpur Junction/YPR 
Arrives @ 09:30 +1 night
Platform# ???
 M W F 
Bidar/BIDR 

16 halts. 78 intermediate Stations between Yesvantpur Junction and Bidar

Hide intermediate Stations  

#CodeStation NameX/OArrivesAvgDepartsAvgHaltPFDay#KmSpeedElevZoneAddress
1YPR»Yesvantpur Junction (6)»  -19:15---10.041919mSWRBengaluru 560022, Karnataka
1.1LOGHLottegollahalli (2)  19:21-19:21-  14.4 41908mSWRBengaluru-94, Karnataka
1.2KDGHKodigehalli (1)  19:25-19:25-  16.9 41914mSWRBangalore, Karnataka
2YNKYelahanka Junction (4)  19:33-19:35-2m2112.372911mSWRBengaluru-560064, Karnataka
2.1RNNRajanukunte (2)  19:42-19:42-  121.0 72915mSWRDoddaballapur Rd, Karnataka
2.2DBUDodballapur (4)X  19:52-19:52-  133.0 72896mSWRDoddaballapur, Karnataka
2.3ORHOddarahalli (1)  19:58-19:58-  140.4 72904mSWROddarahalli, Karnataka
2.4MKLMakalidurga (1)  20:07-20:07-  150.7 72833mSWRMakalidurga, Karnataka
2.5TDVThondebhavi (1)  20:14-20:14-  159.7 72755mSWRTondebavi, Karnataka
2.6SMWASomeshwara (2)  20:20-20:20-  166.6 72716mSWRState Highway 9, Karnataka
3GBDGauribidanur (2)  20:25-20:26-1m1172.540684mSWRChikkaballapur Dist., Karnataka
3.1VWAViduraswattha (1)  20:35-20:35-  178.6 40678mSWRState Highway 9, Karnataka
3.2DPEDevarapalli (2)  20:45-20:45-  185.2 40674mSWRState Highway 9, Andhra Pradesh
4HUPHindupur (4)  21:01-21:02-1m--195.851636mSWRHindupur, Andhra Pradesh
4.1MLUMalugur (2)  21:14-21:14-  1106.3 51629mSWRHindupur, Andhra Pradesh
4.2CPLChakarlapalli (1)  21:29-21:29-  1119.1 51635mSWRAnantpur, Andhra Pradesh
4.3REPIRangepalli (2)XO  21:31-21:31-  1120.7 51629mSWRAnantapur Dist., Andhra Pradesh
4.4PKDPenukonda Junction (2)  21:46-21:46-  1133.4 51548mSWRNH 7 Anantapur District, Andhra Pradesh
4.5MKJMakkajipalli (1)  22:00-22:00-  1145.4 51491mSWRGutturu, Andhra Pradesh
4.6NGMNagasamudram (1)  22:18-22:18-  1160.4 51423mSWRRayalaseema Region, Andhra Pradesh
5DMMDharmavaram Junction (5)X  22:35-22:37-2m--1175.256371mSCRDharmavaram, Andhra Pradesh
5.1CCAChigicherla (2)  22:49-22:49-  1186.6 56375mSCRChennai - Anantpur Rd, Andhra Pradesh
5.2ZPLZangalapalle (2)  22:59-22:59-  1195.9 56372mSCRChennai - Anantpur Rd, Andhra Pradesh
5.3PSPYPrasannayana Palli (1)X  23:06-23:06-  1202.3 56360mSCRAnantapur, Andhra Pradesh
5.4ATPAnantapur (2)  23:13-23:13-  1208.5 56349mSCRAnantapur, Andhra Pradesh
5.5TACTaticherla (1)X  23:21-23:21-  1216.0 56343mSCRAnantapur, Andhra Pradesh
5.6GDEGarladinne (2)X  23:30-23:30-  1225.0 56338mSCRGarladinne, Andhra Pradesh
5.7KLUKalluru Junction (3)  23:42-23:42-  1236.1 56312mSCRAnantapur District, Andhra Pradesh
5.8KDTKhadarpet  23:51-23:51-  1244.6 56340mSCRNational Highway 63, Andhra Pradesh
5.9VPLVenkatampalli  23:55-23:55-  1248.4 56403mSCRNational Highway 63, Andhra Pradesh
5.10GPUGullapalyamuX  00:02-00:02-  2255.1 56477mSCRNational Highway 63, Andhra Pradesh
5.11HNMNHanuman Circle (1)  00:21-00:21-  2273.2 56458mSCRGuntakal, Andhra Pradesh
6GTLGuntakal Junction (6)  00:25-00:30-5m--2276.572453mSCRGuntakal. Tel: 08552-227131/32, Andhra Pradesh
6.1NLANancherla (2)  00:38-00:38-  2285.9 72477mSCRAlur, Andhra Pradesh
6.2NMLUNemakalluX  00:42-00:42-  2291.2 72467mSCRNH 67, Andhra Pradesh
6.3MGVMolagavalli (2)  00:47-00:47-  2297.1 72470mSCRPeddahoturu, Andhra Pradesh
6.4ASPAspari (2)X  00:57-00:57-  2308.3 72460mSCRChinnahoturu, Andhra Pradesh
6.5NRRNagarur (2)X  01:06-01:06-  2319.0 72427mSCRKurnool, Andhra Pradesh
6.6ADAdoni (4)  01:13-01:13-  2328.5 72420mSCRAdoni Tel: 08512-252368, Andhra Pradesh
6.7ESVIsivi (2)  01:19-01:19-  2335.0 72418mSCRadoni, Andhra Pradesh
6.8KGLKupgal (2)X  01:26-01:26-  2342.9 72417mSCRKurnool Dist., Andhra Pradesh
6.9KOKosigi (2)X  01:37-01:37-  2356.6 72379mSCRKurnool Dist., Andhra Pradesh
6.10EGUIranagalluX  01:42-01:42-  2362.3 72358mSCRDevarabetta-518349, Andhra Pradesh
7MALMMantralayam Road (3)X  01:48-01:50-2m--2369.861335mSCRKurnool Tel: 08512-259830, Andhra Pradesh
7.1HPHHanumapura  01:53-01:53-  2372.5 61344mSCRState Highway 61, Karnataka
7.2MTUMatmari  02:01-02:01-  2381.0 61371mSCRRaichur, Karnataka
7.3MRCMarichethal  02:08-02:08-  2388.3 61380mSCRState Highway 13, Karnataka
8RCRaichur Junction (3)  02:18-02:20-2m--2398.272406mSCRRaichur, Karnataka
8.1YSYermaras  02:27-02:27-  2407.1 72380mSCRState Highway 13, Karnataka
8.2CKChiksugar (2)  02:34-02:34-  2414.6 72363mSCRChiksugar, Karnataka
8.3YDLPYadalapur (2)  02:39-02:39-  2420.6 72351mSCRRaichur Dist, Karnataka
8.4KSNKrishna (2)  02:41-02:41-  2423.4 72352mSCRDist Mahabubnagar, Telangana
8.5CGTAChegunta (2)  02:49-02:49-  2432.6 72373mSCRMahabubnagar Dist., Telangana
9SADPSaidapur (3)X  02:58-03:00-2m--2443.646377mSCRYadgir Dist., Karnataka
9.1LGRELingiri (2)  03:17-03:17-  2456.3 46374mSCR585202, Karnataka
10YGYadgir (3)X  03:30-03:32-2m--2466.840369mSCRYadgir, Karnataka
10.1TGDEThangundiO  03:46-03:46-  2476.1 40383mSCRThangundi, Karnataka
10.2SPHLShampurhalli  03:59-03:59-  2485.1 40415mSCRShampurhalli, Karnataka
11NWNalwar (2)  04:10-04:12-2m--2492.125406mSCRGulbarga, Karnataka
11.1HLTSHalkatta Shareef (2)  04:42-04:42-  2504.6 25427mSCRWadi, Karnataka
12CTChittapur (3)  05:17-05:18-1m--2518.997427mSCRChitapur, Karnataka
13MQRMalkhaid Road (2)  05:24-05:25-1m--2528.681431mSCRMalkhaid Road, Karnataka
14SEMSedam (3)  05:34-05:35-1m--2540.743420mSCRSedam ph.no 08441 276066, Karnataka
14.1KQTKurgunta  05:47-05:47-  2549.1 43421mSCRGulbarga, Karnataka
14.2NAWNawandgi (2)  05:57-05:57-  2556.7 43437mSCRTandur, Telangana
14.3MVHMantatti (2)  06:10-06:10-  2565.5 43443mSCRMantatte Tandur, Telangana
15TDUTandur (3)06:22-06:23-1m--2574.239457mSCRTandur, Telangana
15.1RMYRukmapur (2)  06:39-06:39-  2585.0 39465mSCRRangareddy Dist, Telangana
15.2DRRDharur06:54-06:54-  2594.3 39513mSCRRangareddy District, Telangana
15.3MWYMailaram (2)  07:03-07:03-  2600.5 39547mSCRRangareddy District, Telangana
15.4GDQGodamgura (2)  07:13-07:13-  2607.2 39590mSCRRangareddy Dist., Telangana
16VKBVikarabad Junction (3)X07:27-07:32-5m--2616.350633mSCRRangareddy Dist., Telangana
16.1GVPGate Vanampalli  07:50-07:50-  2631.2 50632mSCRRangareddy Dist., Telangana
16.2SSPDSadashivapet RoadX  07:58-07:58-  2638.0 50632mSCRRangareddy Dist., Telangana
16.3MRFMarpalli  08:15-08:15-  2652.2 50628mSCRRangareddu Dist., Telangana
16.4KOHRKohir Deccan (1)  08:27-08:27-  2661.9 50629mSCRMedak Dist., Telangana
17ZBZahirabad (1)  08:44-08:45-1m12675.742634mSCRDist. Medak, Telangana
17.1MTVMatalkunta  09:02-09:02-  2687.6 42600mSCRMedak Dist., Telangana
17.2CHTTChitta  09:11-09:11-  2694.2 42628mSCRBidar Dist.585419, Karnataka
18BIDR•Bidar (3)•  09:30----2707.5-673mSCRBidar ph.no 08482 226404, Karnataka
Scroll to Top
Scroll to Bottom